Time;durP1;ratioP1;P1;durP2;ratioP2;P2;SDS_P1;SDS_P2;PMS_P1;PMS_P2;Temp;Humidity;BMP_temperature;BMP_pressure;BME280_temperature;BME280_humidity;BME280_pressure;Samples;Min_cycle;Max_cycle;Signal;HPM_P1;HPM_P2
2022/07/30 00:01:32;;;;;;;;;;;;;;;23.76;41.12;101097.25;4991078;28;4213;-68
2022/07/30 00:04:01;;;;;;;;;;;;;;;23.75;41.31;101095.75;4993419;28;4197;-69
2022/07/30 00:06:27;;;;;;;;;;;;;;;23.76;41.54;101091.47;4996158;28;4154;-68
2022/07/30 00:08:53;;;;;;;;;;;;;;;23.75;41.64;101087.09;5001123;28;5126;-68
2022/07/30 00:11:20;;;;;;;;;;;;;;;23.75;41.65;101089.97;4994919;28;4216;-70
2022/07/30 00:13:53;;;;;;;;;;;;;;;23.75;41.66;101095.03;4996125;28;4274;-69
2022/07/30 00:16:19;;;;;;;;;;;;;;;23.74;41.69;101094.28;4994591;28;4328;-70
2022/07/30 00:18:45;;;;;;;;;;;;;;;23.75;41.93;101092.13;4993597;28;4227;-71
2022/07/30 00:21:13;;;;;;;;;;;;;;;23.73;41.95;101092.78;4994743;28;4386;-69
2022/07/30 00:24:00;;;;;;;;;;;;;;;23.74;42.01;101094.28;4997232;28;4172;-68
2022/07/30 00:26:27;;;;;;;;;;;;;;;23.73;41.78;101092.03;4995013;28;4160;-68
2022/07/30 00:28:54;;;;;;;;;;;;;;;23.73;42.08;101081.22;4997636;28;4001;-68
2022/07/30 00:31:20;;;;;;;;;;;;;;;23.73;42.20;101084.13;4996814;28;4096;-68
2022/07/30 00:33:46;;;;;;;;;;;;;;;23.73;42.06;101092.03;4998574;28;4291;-68
2022/07/30 00:36:13;;;;;;;;;;;;;;;23.73;41.96;101086.25;4995164;28;4201;-68
2022/07/30 00:38:39;;;;;;;;;;;;;;;23.72;42.16;101084.78;4989402;28;4139;-68
2022/07/30 00:41:06;;;;;;;;;;;;;;;23.71;41.80;101083.28;5010456;28;4436;-67
2022/07/30 00:43:32;;;;;;;;;;;;;;;23.72;41.83;101082.63;4998278;28;4194;-68
2022/07/30 00:45:58;;;;;;;;;;;;;;;23.70;41.82;101076.75;4995164;28;4236;-69
2022/07/30 00:48:25;;;;;;;;;;;;;;;23.69;42.01;101081.06;4992516;28;4221;-68
2022/07/30 00:50:51;;;;;;;;;;;;;;;23.69;42.11;101081.06;4991407;28;4158;-69
2022/07/30 00:53:17;;;;;;;;;;;;;;;23.69;41.80;101080.34;4998518;28;4169;-68
2022/07/30 00:55:44;;;;;;;;;;;;;;;23.67;41.88;101083.91;4997797;28;4314;-69
2022/07/30 00:58:10;;;;;;;;;;;;;;;23.69;41.85;101078.19;4997888;28;4449;-69
2022/07/30 01:00:37;;;;;;;;;;;;;;;23.69;42.18;101075.28;4997467;28;4349;-68
2022/07/30 01:03:03;;;;;;;;;;;;;;;23.69;42.03;101078.19;4996486;28;5404;-68
2022/07/30 01:05:30;;;;;;;;;;;;;;;23.68;42.01;101076.69;5000343;28;4251;-68
2022/07/30 01:07:56;;;;;;;;;;;;;;;23.67;42.13;101078.13;4995553;28;5512;-68
2022/07/30 01:10:22;;;;;;;;;;;;;;;23.68;42.07;101078.84;4996333;28;4167;-68
2022/07/30 01:12:51;;;;;;;;;;;;;;;23.67;42.03;101072.31;4986823;28;4156;-68
2022/07/30 01:15:18;;;;;;;;;;;;;;;23.68;42.02;101073.78;4989179;28;4187;-68
2022/07/30 01:17:45;;;;;;;;;;;;;;;23.67;42.03;101078.13;4993921;28;4259;-68
2022/07/30 01:20:20;;;;;;;;;;;;;;;23.67;42.03;101072.31;4990531;28;4045;-68
2022/07/30 01:22:51;;;;;;;;;;;;;;;23.67;42.07;101078.13;4996228;28;4212;-68
2022/07/30 01:25:37;;;;;;;;;;;;;;;23.67;42.36;101078.13;4994055;28;4424;-69
2022/07/30 01:28:08;;;;;;;;;;;;;;;23.66;42.37;101076.63;4982849;28;4320;-69
2022/07/30 01:30:41;;;;;;;;;;;;;;;23.66;42.32;101078.78;4977439;28;4185;-68
2022/07/30 01:33:10;;;;;;;;;;;;;;;23.66;42.17;101078.78;4993765;28;4244;-68
2022/07/30 01:35:37;;;;;;;;;;;;;;;23.66;42.26;101082.41;4989819;28;4284;-68
2022/07/30 01:38:03;;;;;;;;;;;;;;;23.66;42.21;101076.63;4982932;28;4229;-69
2022/07/30 01:40:30;;;;;;;;;;;;;;;23.66;42.50;101078.78;4994505;28;5771;-68
2022/07/30 01:42:57;;;;;;;;;;;;;;;23.64;42.59;101073.66;4979502;28;4265;-68
2022/07/30 01:45:24;;;;;;;;;;;;;;;23.63;42.46;101067.13;4980053;28;4222;-68
2022/07/30 01:47:51;;;;;;;;;;;;;;;23.64;42.24;101076.56;4994919;28;4135;-67
2022/07/30 01:50:17;;;;;;;;;;;;;;;23.64;42.40;101070.78;4995011;28;5352;-68
2022/07/30 01:52:44;;;;;;;;;;;;;;;23.63;42.33;101075.06;4980007;28;4319;-67
2022/07/30 01:55:24;;;;;;;;;;;;;;;23.63;42.51;101075.81;4994489;28;4191;-67
2022/07/30 01:57:51;;;;;;;;;;;;;;;23.63;42.80;101072.19;4984793;28;4322;-68
2022/07/30 02:00:17;;;;;;;;;;;;;;;23.63;42.51;101066.38;4994167;28;5317;-68
2022/07/30 02:02:47;;;;;;;;;;;;;;;23.62;42.84;101070.72;5007341;28;4264;-67
2022/07/30 02:05:13;;;;;;;;;;;;;;;23.63;42.60;101077.97;4993532;28;4185;-68
2022/07/30 02:07:59;;;;;;;;;;;;;;;23.63;42.61;101083.75;4994737;28;4235;-67
2022/07/30 02:10:27;;;;;;;;;;;;;;;23.63;42.54;101083.75;4994434;28;5327;-67
2022/07/30 02:12:54;;;;;;;;;;;;;;;23.62;42.83;101082.28;4994174;28;5478;-67
2022/07/30 02:15:25;;;;;;;;;;;;;;;23.61;42.64;101092.34;4995073;28;4196;-67
2022/07/30 02:17:51;;;;;;;;;;;;;;;23.61;42.72;101080.78;4983577;28;4363;-68
2022/07/30 02:20:18;;;;;;;;;;;;;;;23.60;42.82;101085.81;5007119;28;5378;-68
2022/07/30 02:22:50;;;;;;;;;;;;;;;23.61;43.06;101075.00;4981635;28;4314;-67
2022/07/30 02:25:17;;;;;;;;;;;;;;;23.60;42.69;101077.16;4992654;28;4254;-68
2022/07/30 02:27:44;;;;;;;;;;;;;;;23.60;42.89;101070.63;4996786;28;4110;-67
2022/07/30 02:30:10;;;;;;;;;;;;;;;23.58;42.93;101070.56;4983470;28;4202;-68
2022/07/30 02:32:37;;;;;;;;;;;;;;;23.59;42.86;101077.81;4986455;28;4129;-67
2022/07/30 02:35:10;;;;;;;;;;;;;;;23.60;43.19;101067.75;4996135;28;4189;-68
2022/07/30 02:37:37;;;;;;;;;;;;;;;23.59;42.93;101066.25;4975426;28;4160;-67
2022/07/30 02:40:10;;;;;;;;;;;;;;;23.60;43.13;101073.53;5004959;28;4561;-68
2022/07/30 02:42:36;;;;;;;;;;;;;;;23.60;43.00;101077.16;4983170;28;4179;-67
2022/07/30 02:45:03;;;;;;;;;;;;;;;23.59;42.96;101072.78;4977614;28;4164;-68
2022/07/30 02:47:30;;;;;;;;;;;;;;;23.60;43.09;101070.63;4975969;28;4244;-68
2022/07/30 02:50:01;;;;;;;;;;;;;;;23.59;43.05;101074.91;4983594;28;4326;-68
2022/07/30 02:52:27;;;;;;;;;;;;;;;23.58;43.41;101070.56;4995659;28;4386;-67
2022/07/30 02:54:55;;;;;;;;;;;;;;;23.58;43.39;101071.28;4982161;28;4423;-68
2022/07/30 02:57:21;;;;;;;;;;;;;;;23.58;43.08;101068.41;4980351;28;5284;-67
2022/07/30 02:59:47;;;;;;;;;;;;;;;23.58;43.15;101087.91;4982576;28;4337;-68
2022/07/30 03:02:14;;;;;;;;;;;;;;;23.59;43.58;101077.81;4992499;28;4275;-67
2022/07/30 03:04:41;;;;;;;;;;;;;;;23.57;43.62;101080.63;4973064;28;4215;-68
2022/07/30 03:07:08;;;;;;;;;;;;;;;23.58;43.81;101090.78;4984406;28;4391;-68
2022/07/30 03:09:36;;;;;;;;;;;;;;;23.57;44.41;101092.19;4991624;28;4124;-68
2022/07/30 03:12:18;;;;;;;;;;;;;;;23.56;44.19;101096.50;4975402;28;4189;-67
2022/07/30 03:14:44;;;;;;;;;;;;;;;23.56;44.47;101091.44;4995445;28;4097;-67
2022/07/30 03:17:11;;;;;;;;;;;;;;;23.55;44.73;101097.91;4992228;28;5427;-67
2022/07/30 03:19:37;;;;;;;;;;;;;;;23.56;44.78;101102.28;4997463;28;4225;-68
2022/07/30 03:22:05;;;;;;;;;;;;;;;23.56;44.89;101102.28;4981973;28;4290;-68
2022/07/30 03:24:32;;;;;;;;;;;;;;;23.53;44.75;101089.91;4993253;28;5326;-67
2022/07/30 03:26:59;;;;;;;;;;;;;;;23.56;45.06;101099.38;4983134;28;4207;-68
2022/07/30 03:29:27;;;;;;;;;;;;;;;23.56;45.24;101099.38;4997009;28;4506;-68
2022/07/30 03:31:54;;;;;;;;;;;;;;;23.55;44.97;101113.09;4995673;28;4196;-68
2022/07/30 03:34:20;;;;;;;;;;;;;;;23.56;45.03;101105.16;4978295;28;4560;-68
2022/07/30 03:36:47;;;;;;;;;;;;;;;23.56;45.02;101102.28;4992769;28;4199;-67
2022/07/30 03:39:13;;;;;;;;;;;;;;;23.55;45.20;101095.03;4990680;28;5586;-68
2022/07/30 03:41:40;;;;;;;;;;;;;;;23.55;45.36;101101.53;4993761;28;4208;-68
2022/07/30 03:44:11;;;;;;;;;;;;;;;23.54;45.40;101100.03;4992991;28;4130;-68
2022/07/30 03:46:38;;;;;;;;;;;;;;;23.55;45.26;101103.69;4991263;28;5351;-67
2022/07/30 03:49:04;;;;;;;;;;;;;;;23.54;45.33;101100.03;4981043;28;4307;-68
2022/07/30 03:51:32;;;;;;;;;;;;;;;23.56;45.57;101108.06;4998324;28;4294;-67
2022/07/30 03:53:58;;;;;;;;;;;;;;;23.56;45.27;101093.59;4992581;28;4223;-68
2022/07/30 03:56:43;;;;;;;;;;;;;;;23.53;45.34;101097.84;4978915;28;4243;-68
2022/07/30 03:59:30;;;;;;;;;;;;;;;23.54;45.30;101105.09;4994823;28;6396;-68
2022/07/30 04:02:03;;;;;;;;;;;;;;;23.52;45.17;101105.00;5007528;28;4183;-68
2022/07/30 04:04:52;;;;;;;;;;;;;;;23.51;45.33;101100.66;5005808;28;4228;-67
2022/07/30 04:07:19;;;;;;;;;;;;;;;23.50;45.18;101110.72;5009574;28;4175;-67
2022/07/30 04:09:45;;;;;;;;;;;;;;;23.51;44.97;101103.53;4992990;28;4325;-68
2022/07/30 04:12:26;;;;;;;;;;;;;;;23.49;45.08;101109.97;4997726;28;4158;-67
2022/07/30 04:14:52;;;;;;;;;;;;;;;23.49;44.89;101115.75;4997232;28;4207;-67
2022/07/30 04:17:20;;;;;;;;;;;;;;;23.50;45.13;101116.50;4997467;28;4268;-67
2022/07/30 04:19:48;;;;;;;;;;;;;;;23.50;45.00;101116.50;4985037;28;4100;-67
2022/07/30 04:22:15;;;;;;;;;;;;;;;23.50;45.52;101117.25;4985780;28;4290;-67
2022/07/30 04:24:41;;;;;;;;;;;;;;;23.51;45.65;101109.31;4992119;28;4238;-67
2022/07/30 04:27:08;;;;;;;;;;;;;;;23.49;45.47;101112.88;4998270;28;4207;-68
2022/07/30 04:29:34;;;;;;;;;;;;;;;23.50;45.32;101116.50;4997008;28;4218;-67
2022/07/30 04:32:01;;;;;;;;;;;;;;;23.48;45.65;101117.16;4999616;28;4237;-67
2022/07/30 04:34:30;;;;;;;;;;;;;;;23.49;45.51;101123.69;4997315;28;4208;-67
2022/07/30 04:36:56;;;;;;;;;;;;;;;23.50;45.67;101125.16;4996651;28;4531;-67
2022/07/30 04:39:23;;;;;;;;;;;;;;;23.50;45.60;101123.03;4990915;28;5306;-67
2022/07/30 04:41:50;;;;;;;;;;;;;;;23.48;45.93;101125.09;4995307;28;4113;-67
2022/07/30 04:44:33;;;;;;;;;;;;;;;23.49;45.80;101132.34;4996987;28;5247;-67
2022/07/30 04:47:20;;;;;;;;;;;;;;;23.47;45.88;101130.13;5003697;28;4242;-67
2022/07/30 04:50:01;;;;;;;;;;;;;;;23.49;45.88;101126.56;4997878;28;4314;-67
2022/07/30 04:52:28;;;;;;;;;;;;;;;23.48;46.09;101130.88;4979351;28;4211;-68
2022/07/30 04:54:55;;;;;;;;;;;;;;;23.48;46.21;101128.72;4995106;28;4224;-68
2022/07/30 04:57:22;;;;;;;;;;;;;;;23.47;46.10;101126.50;4995915;28;4274;-67
2022/07/30 04:59:48;;;;;;;;;;;;;;;23.47;46.27;101120.72;4979592;28;5378;-68
2022/07/30 05:02:15;;;;;;;;;;;;;;;23.47;46.17;101120.72;4994023;28;4177;-68
2022/07/30 05:04:41;;;;;;;;;;;;;;;23.47;46.24;101133.00;4999953;28;4380;-67
2022/07/30 05:07:08;;;;;;;;;;;;;;;23.48;46.28;101128.72;5010026;28;4170;-68
2022/07/30 05:09:35;;;;;;;;;;;;;;;23.46;46.17;101134.44;4984406;28;4209;-68
2022/07/30 05:12:02;;;;;;;;;;;;;;;23.46;46.37;101130.81;4990105;28;4381;-68
2022/07/30 05:14:28;;;;;;;;;;;;;;;23.45;46.23;101132.94;4997335;28;4203;-67
2022/07/30 05:16:55;;;;;;;;;;;;;;;23.45;46.21;101132.19;4996759;28;4253;-67
2022/07/30 05:19:21;;;;;;;;;;;;;;;23.44;46.25;101130.72;4999462;28;4188;-67
2022/07/30 05:21:48;;;;;;;;;;;;;;;23.44;46.16;101125.69;5008366;28;4186;-67
2022/07/30 05:24:14;;;;;;;;;;;;;;;23.45;46.23;101126.41;4989421;28;5243;-67
2022/07/30 05:26:48;;;;;;;;;;;;;;;23.43;46.41;101127.06;4990795;28;4163;-67
2022/07/30 05:29:16;;;;;;;;;;;;;;;23.42;46.16;101128.50;4999350;28;4305;-67
2022/07/30 05:31:49;;;;;;;;;;;;;;;23.43;46.08;101129.97;4995123;28;4300;-68
2022/07/30 05:34:16;;;;;;;;;;;;;;;23.45;46.07;101126.41;4997734;28;4646;-67
2022/07/30 05:36:43;;;;;;;;;;;;;;;23.44;46.28;101124.94;4992504;28;5450;-68
2022/07/30 05:39:12;;;;;;;;;;;;;;;23.45;46.24;101120.63;5004440;28;4203;-67
2022/07/30 05:41:58;;;;;;;;;;;;;;;23.44;46.29;101122.06;4996558;28;4256;-67
2022/07/30 05:44:31;;;;;;;;;;;;;;;23.44;46.51;101119.16;4998576;28;4123;-67
2022/07/30 05:46:57;;;;;;;;;;;;;;;23.42;46.40;101117.66;4995538;28;6315;-67
2022/07/30 05:49:24;;;;;;;;;;;;;;;23.42;46.49;101116.94;4997637;28;4056;-67
2022/07/30 05:51:53;;;;;;;;;;;;;;;23.41;46.56;101116.19;4991898;28;4496;-67
2022/07/30 05:54:20;;;;;;;;;;;;;;;23.46;46.52;101122.88;4984233;28;4318;-63
2022/07/30 05:57:07;;;;;;;;;;;;;;;23.52;46.37;101113.69;4988037;28;4394;-59
2022/07/30 05:59:36;;;;;;;;;;;;;;;23.52;46.39;101119.47;5010747;28;4176;-61
2022/07/30 06:02:07;;;;;;;;;;;;;;;23.53;46.70;101132.53;4993086;28;4201;-61
2022/07/30 06:04:51;;;;;;;;;;;;;;;23.41;46.44;101127.75;5001984;28;4429;-60
2022/07/30 06:07:18;;;;;;;;;;;;;;;23.31;46.78;101130.25;4994292;28;5254;-61
2022/07/30 06:09:44;;;;;;;;;;;;;;;23.30;46.88;101133.81;4996416;28;4250;-61
2022/07/30 06:12:11;;;;;;;;;;;;;;;23.32;46.82;101131.75;4996460;28;4202;-60
2022/07/30 06:14:39;;;;;;;;;;;;;;;23.30;46.55;101134.56;4998457;28;4248;-60
2022/07/30 06:17:09;;;;;;;;;;;;;;;23.29;46.65;101133.06;4990877;28;4169;-61
2022/07/30 06:20:00;;;;;;;;;;;;;;;23.38;46.59;101126.19;4992265;28;6404;-62
2022/07/30 06:22:31;;;;;;;;;;;;;;;23.47;45.87;101133.00;5010868;28;4268;-61
2022/07/30 06:25:04;;;;;;;;;;;;;;;23.48;45.51;101130.88;4993932;28;5346;-60
2022/07/30 06:27:32;;;;;;;;;;;;;;;23.45;45.51;101138.72;4996552;28;5339;-64
2022/07/30 06:30:05;;;;;;;;;;;;;;;23.46;45.58;101140.22;4989389;28;5335;-65
2022/07/30 06:32:32;;;;;;;;;;;;;;;23.48;45.77;101148.19;4990677;28;4105;-62
2022/07/30 06:34:58;;;;;;;;;;;;;;;23.54;45.73;101151.34;4994196;28;4136;-65
2022/07/30 06:37:30;;;;;;;;;;;;;;;23.49;45.72;101144.66;4992238;28;4050;-60
2022/07/30 06:40:17;;;;;;;;;;;;;;;23.47;45.84;101158.28;5007909;28;5399;-60
2022/07/30 06:42:56;;;;;;;;;;;;;;;23.43;45.80;101153.09;5007301;28;4248;-67
2022/07/30 06:45:34;;;;;;;;;;;;;;;23.41;46.14;101145.09;4991350;28;4150;-67
2022/07/30 06:48:29;;;;;;;;;;;;;;;23.42;46.43;101149.47;4989227;28;4218;-67
2022/07/30 06:50:56;;;;;;;;;;;;;;;23.46;46.05;101148.16;4995497;28;4259;-68
2022/07/30 06:53:23;;;;;;;;;;;;;;;23.48;46.08;101154.75;4994437;28;4233;-67
2022/07/30 06:56:10;;;;;;;;;;;;;;;23.49;46.21;101156.22;4996172;28;6571;-68
2022/07/30 06:58:46;;;;;;;;;;;;;;;23.50;46.18;101151.94;4997038;28;4976;-67
2022/07/30 07:01:33;;;;;;;;;;;;;;;23.52;46.28;101160.66;4996973;28;4333;-68
2022/07/30 07:03:59;;;;;;;;;;;;;;;23.52;46.28;101157.03;4995994;28;4208;-67
2022/07/30 07:06:26;;;;;;;;;;;;;;;23.53;45.96;101159.28;4995399;28;4209;-68
2022/07/30 07:08:52;;;;;;;;;;;;;;;23.54;46.49;101157.13;4994373;28;4290;-67
2022/07/30 07:11:27;;;;;;;;;;;;;;;23.55;46.28;101158.63;4998519;28;6334;-67
2022/07/30 07:13:55;;;;;;;;;;;;;;;23.56;46.28;101160.09;4996038;28;4303;-67
2022/07/30 07:16:31;;;;;;;;;;;;;;;23.56;46.44;101154.31;4999837;28;4220;-67
2022/07/30 07:19:05;;;;;;;;;;;;;;;23.57;46.66;101161.56;4985088;28;4232;-67
2022/07/30 07:21:31;;;;;;;;;;;;;;;23.57;46.48;101161.56;4995908;28;4232;-68
2022/07/30 07:23:59;;;;;;;;;;;;;;;23.58;46.71;101157.28;4994565;28;4470;-68
2022/07/30 07:26:44;;;;;;;;;;;;;;;23.58;46.34;101157.28;4997192;28;4283;-67
2022/07/30 07:29:10;;;;;;;;;;;;;;;23.59;46.54;101168.19;4993685;28;4160;-68
2022/07/30 07:31:37;;;;;;;;;;;;;;;23.60;46.43;101166.03;5001239;28;4239;-68
2022/07/30 07:34:23;;;;;;;;;;;;;;;23.61;46.46;101170.38;5001254;28;5515;-68
2022/07/30 07:36:51;;;;;;;;;;;;;;;23.61;46.76;101158.81;5013172;28;4233;-68
2022/07/30 07:39:18;;;;;;;;;;;;;;;23.62;46.60;101166.09;4995796;28;4195;-67
2022/07/30 07:41:46;;;;;;;;;;;;;;;23.62;46.50;101169.00;4999149;28;4243;-68
2022/07/30 07:44:16;;;;;;;;;;;;;;;23.62;46.66;101169.00;4993740;28;5365;-68
2022/07/30 07:46:42;;;;;;;;;;;;;;;23.61;46.79;101174.00;4997192;28;4286;-68
2022/07/30 07:49:09;;;;;;;;;;;;;;;23.61;46.64;101165.34;4999423;28;4277;-67
2022/07/30 07:51:42;;;;;;;;;;;;;;;23.61;46.63;101173.28;5000022;28;5239;-67
2022/07/30 07:54:15;;;;;;;;;;;;;;;23.62;46.51;101174.78;4996565;28;5404;-68
2022/07/30 07:56:54;;;;;;;;;;;;;;;23.63;46.62;101170.47;4999021;28;5343;-67
2022/07/30 07:59:25;;;;;;;;;;;;;;;23.63;46.50;101170.47;4998744;28;4182;-68
2022/07/30 08:02:07;;;;;;;;;;;;;;;23.62;46.46;101169.72;4999579;28;4332;-68
2022/07/30 08:04:53;;;;;;;;;;;;;;;23.62;46.91;101169.00;4998819;28;4389;-68
2022/07/30 08:07:43;;;;;;;;;;;;;;;23.62;46.72;101166.09;4999663;28;4195;-67
2022/07/30 08:10:28;;;;;;;;;;;;;;;23.63;46.58;101176.25;5001848;28;5523;-67
2022/07/30 08:13:20;;;;;;;;;;;;;;;23.63;46.49;101170.47;5001048;28;5603;-68
2022/07/30 08:16:25;;;;;;;;;;;;;;;23.63;46.54;101173.34;4997820;28;4235;-68
2022/07/30 08:19:12;;;;;;;;;;;;;;;23.62;46.62;101169.00;4994488;28;5234;-68
2022/07/30 08:21:42;;;;;;;;;;;;;;;23.62;46.49;101169.00;4998688;28;4199;-67
2022/07/30 08:24:08;;;;;;;;;;;;;;;23.62;46.76;101163.22;5012759;28;4262;-67
2022/07/30 08:26:35;;;;;;;;;;;;;;;23.61;46.88;101162.44;4999011;28;5249;-67
2022/07/30 08:29:01;;;;;;;;;;;;;;;23.61;46.54;101159.56;4997362;28;4180;-68
2022/07/30 08:31:27;;;;;;;;;;;;;;;23.61;46.77;101155.94;5002924;28;4199;-68
2022/07/30 08:33:54;;;;;;;;;;;;;;;23.61;46.75;101153.03;5002001;28;4214;-68
2022/07/30 08:36:21;;;;;;;;;;;;;;;23.61;46.90;101158.81;4998376;28;5326;-68
2022/07/30 08:38:52;;;;;;;;;;;;;;;23.61;46.81;101156.66;5001727;28;4096;-68
2022/07/30 08:41:19;;;;;;;;;;;;;;;23.61;46.77;101158.81;5003269;28;4377;-68
2022/07/30 08:43:46;;;;;;;;;;;;;;;23.61;46.77;101158.81;4997281;28;5346;-68
2022/07/30 08:46:13;;;;;;;;;;;;;;;23.63;46.37;101158.91;4998767;28;5410;-68
2022/07/30 08:48:51;;;;;;;;;;;;;;;23.63;46.47;101150.22;4997058;28;4375;-68
2022/07/30 08:51:18;;;;;;;;;;;;;;;23.63;46.43;101161.78;4995187;28;4250;-68
2022/07/30 08:54:03;;;;;;;;;;;;;;;23.62;46.43;101158.16;4991333;28;4405;-76
2022/07/30 08:56:29;;;;;;;;;;;;;;;23.62;46.52;101163.22;4995861;28;4246;-63
2022/07/30 08:58:56;;;;;;;;;;;;;;;23.60;46.60;101163.13;4992011;28;4229;-69
2022/07/30 09:01:22;;;;;;;;;;;;;;;23.65;46.60;101156.09;4976857;28;4322;-68
2022/07/30 09:03:49;;;;;;;;;;;;;;;23.67;46.50;101153.28;4997192;28;4234;-68
2022/07/30 09:06:15;;;;;;;;;;;;;;;23.69;46.17;101149.72;4993828;28;5439;-67
2022/07/30 09:08:42;;;;;;;;;;;;;;;23.69;46.11;101156.25;4985832;28;4588;-67
2022/07/30 09:11:09;;;;;;;;;;;;;;;23.67;46.81;101153.28;4983093;28;4209;-67
2022/07/30 09:13:36;;;;;;;;;;;;;;;23.66;46.34;101148.16;4993866;28;4063;-70
2022/07/30 09:16:04;;;;;;;;;;;;;;;23.65;46.42;101156.09;4989620;28;4275;-67
2022/07/30 09:18:37;;;;;;;;;;;;;;;23.64;46.30;101148.84;4995968;28;4300;-69
2022/07/30 09:21:14;;;;;;;;;;;;;;;23.65;46.22;101158.97;4995162;28;4439;-69
2022/07/30 09:23:57;;;;;;;;;;;;;;;23.66;45.84;101148.88;4996171;28;4362;-69
2022/07/30 09:26:51;;;;;;;;;;;;;;;23.69;46.22;101153.34;4994507;28;4312;-69
2022/07/30 09:29:37;;;;;;;;;;;;;;;23.68;46.31;101154.75;4994820;28;4258;-69
2022/07/30 09:32:48;;;;;;;;;;;;;;;23.68;46.18;101154.75;4992578;28;4326;-69
2022/07/30 09:35:32;;;;;;;;;;;;;;;23.68;46.22;101148.97;4992876;28;4188;-72
2022/07/30 09:38:25;;;;;;;;;;;;;;;23.68;46.23;101163.44;4994772;28;4185;-69
2022/07/30 09:40:52;;;;;;;;;;;;;;;23.69;46.55;101156.25;4995668;28;4476;-69
2022/07/30 09:43:48;;;;;;;;;;;;;;;23.68;46.72;101154.75;4995344;28;4210;-67
2022/07/30 09:46:39;;;;;;;;;;;;;;;23.68;46.60;101163.44;4988091;28;4236;-69
2022/07/30 09:49:18;;;;;;;;;;;;;;;23.70;46.54;101159.88;4997423;28;5435;-66
2022/07/30 09:51:45;;;;;;;;;;;;;;;23.75;46.48;101164.44;5000438;28;4359;-72
2022/07/30 09:54:41;;;;;;;;;;;;;;;23.72;46.71;101163.59;4995830;28;5320;-66
2022/07/30 09:57:17;;;;;;;;;;;;;;;23.75;46.82;101158.66;4994725;28;4420;-68
2022/07/30 09:59:52;;;;;;;;;;;;;;;23.74;46.93;101162.94;4993208;28;4504;-67
2022/07/30 10:02:20;;;;;;;;;;;;;;;23.74;46.85;101162.94;4987490;28;4194;-64
2022/07/30 10:05:07;;;;;;;;;;;;;;;23.73;46.82;101150.63;4995341;28;4800;-67
2022/07/30 10:07:33;;;;;;;;;;;;;;;23.73;46.86;101159.31;4992301;28;4230;-70
2022/07/30 10:10:09;;;;;;;;;;;;;;;23.74;46.92;101157.91;4981000;28;4254;-68
2022/07/30 10:12:35;;;;;;;;;;;;;;;23.79;47.18;101159.53;4980582;28;4175;-65
2022/07/30 10:15:05;;;;;;;;;;;;;;;23.77;47.71;101155.81;4993000;28;5164;-64
2022/07/30 10:17:33;;;;;;;;;;;;;;;23.76;47.24;101151.47;4994925;28;4558;-65
2022/07/30 10:20:17;;;;;;;;;;;;;;;23.74;46.96;101155.00;4999004;28;4177;-67
2022/07/30 10:23:05;;;;;;;;;;;;;;;23.78;46.96;101155.16;4995349;28;4313;-67
2022/07/30 10:25:54;;;;;;;;;;;;;;;23.76;46.69;101163.75;4994125;28;5809;-67
2022/07/30 10:28:42;;;;;;;;;;;;;;;23.76;46.50;101155.09;4998987;28;4180;-67
2022/07/30 10:31:08;;;;;;;;;;;;;;;23.77;46.55;101155.81;4993741;28;4243;-69
2022/07/30 10:33:55;;;;;;;;;;;;;;;23.77;46.41;101150.78;4991148;28;4085;-62
2022/07/30 10:36:21;;;;;;;;;;;;;;;23.79;46.26;101150.84;4985189;28;4394;-63
2022/07/30 10:38:49;;;;;;;;;;;;;;;23.82;46.37;101158.22;4994824;28;4110;-63
2022/07/30 10:41:24;;;;;;;;;;;;;;;23.85;46.39;101147.47;4992970;28;5448;-62
2022/07/30 10:44:11;;;;;;;;;;;;;;;23.83;46.55;101153.91;4988024;28;4539;-63
2022/07/30 10:47:02;;;;;;;;;;;;;;;23.81;46.52;101150.19;4990395;28;4263;-62
2022/07/30 10:49:33;;;;;;;;;;;;;;;23.80;46.24;101148.69;4990657;28;4225;-63
2022/07/30 10:52:07;;;;;;;;;;;;;;;23.81;46.37;101153.09;4992885;28;4083;-62
2022/07/30 10:54:34;;;;;;;;;;;;;;;23.82;46.35;101135.09;4982748;28;4307;-63
2022/07/30 10:57:14;;;;;;;;;;;;;;;23.83;46.40;101139.44;4987866;28;4561;-63
2022/07/30 10:59:57;;;;;;;;;;;;;;;23.83;46.29;101144.50;4986709;28;5603;-62
2022/07/30 11:02:26;;;;;;;;;;;;;;;23.83;46.47;101139.44;4988578;28;4318;-62
2022/07/30 11:05:12;;;;;;;;;;;;;;;23.85;46.23;101140.94;4984140;28;4016;-61
2022/07/30 11:07:40;;;;;;;;;;;;;;;23.86;46.17;101140.25;4993130;28;4039;-61
2022/07/30 11:10:31;;;;;;;;;;;;;;;23.87;46.13;101132.31;4992362;28;5110;-61
2022/07/30 11:12:57;;;;;;;;;;;;;;;23.88;46.15;101130.91;4994236;28;4582;-63
2022/07/30 11:15:23;;;;;;;;;;;;;;;23.90;46.53;101133.88;4994001;28;5337;-64
2022/07/30 11:18:00;;;;;;;;;;;;;;;23.92;46.62;101137.59;4996795;28;4087;-63
2022/07/30 11:20:27;;;;;;;;;;;;;;;24.04;46.12;101138.03;4998914;28;3941;-62
2022/07/30 11:23:04;;;;;;;;;;;;;;;24.07;45.99;101135.19;4998364;28;4184;-63
2022/07/30 11:25:31;;;;;;;;;;;;;;;24.06;46.03;101136.63;4993240;28;5223;-62
2022/07/30 11:28:32;;;;;;;;;;;;;;;24.14;46.12;101146.31;4999127;28;4182;-62
2022/07/30 11:31:00;;;;;;;;;;;;;;;24.23;45.82;101139.44;4994308;28;6087;-63
2022/07/30 11:33:35;;;;;;;;;;;;;;;24.12;46.22;101136.81;4994864;28;5525;-63
2022/07/30 11:36:05;;;;;;;;;;;;;;;24.12;46.72;101136.81;5002342;28;4215;-61
2022/07/30 11:38:51;;;;;;;;;;;;;;;24.10;46.65;101131.72;4996593;28;4710;-61
2022/07/30 11:41:17;;;;;;;;;;;;;;;24.13;45.97;101133.28;4998398;28;5254;-64
2022/07/30 11:43:44;;;;;;;;;;;;;;;24.10;46.00;101134.63;4999879;28;4236;-63
2022/07/30 11:46:11;;;;;;;;;;;;;;;24.09;45.85;101127.34;5000326;28;4413;-64
2022/07/30 11:48:43;;;;;;;;;;;;;;;24.15;45.38;101121.78;4998255;28;4230;-64
2022/07/30 11:51:09;;;;;;;;;;;;;;;24.20;45.05;101125.53;4991899;28;4227;-64
2022/07/30 11:53:36;;;;;;;;;;;;;;;24.20;44.38;101126.28;4995279;28;4150;-64
2022/07/30 11:56:02;;;;;;;;;;;;;;;24.22;44.37;101134.28;4994964;28;4092;-74
2022/07/30 11:58:33;;;;;;;;;;;;;;;24.16;44.59;101137.69;4990877;28;4149;-58
2022/07/30 12:01:00;;;;;;;;;;;;;;;24.38;45.71;101134.13;4993020;28;4153;-69
2022/07/30 12:03:27;;;;;;;;;;;;;;;24.38;47.00;101128.34;4996732;28;4553;-60
2022/07/30 12:05:55;;;;;;;;;;;;;;;24.43;48.40;101132.84;4996603;28;4554;-64
2022/07/30 12:08:21;;;;;;;;;;;;;;;24.40;49.11;101125.50;4997837;28;4435;-63
2022/07/30 12:11:01;;;;;;;;;;;;;;;24.37;49.79;101126.84;4996407;28;4196;-65
2022/07/30 12:13:28;;;;;;;;;;;;;;;24.29;49.77;101115.00;4998029;28;4416;-72
2022/07/30 12:16:17;;;;;;;;;;;;;;;24.24;49.39;101126.44;4995760;28;4266;-64
2022/07/30 12:18:43;;;;;;;;;;;;;;;24.20;49.62;101132.06;4992451;28;4618;-63
2022/07/30 12:21:16;;;;;;;;;;;;;;;24.15;49.94;101126.81;4997487;28;5395;-65
2022/07/30 12:23:52;;;;;;;;;;;;;;;24.13;49.90;101126.75;4995044;28;4252;-64
2022/07/30 12:26:19;;;;;;;;;;;;;;;24.10;49.70;101123.03;4996859;28;4877;-64
2022/07/30 12:28:45;;;;;;;;;;;;;;;24.10;49.41;101140.41;4997750;28;4053;-65
2022/07/30 12:31:13;;;;;;;;;;;;;;;24.09;48.88;101141.06;4990017;28;5134;-64
2022/07/30 12:33:39;;;;;;;;;;;;;;;24.11;48.84;101132.47;4991364;28;4188;-59
2022/07/30 12:36:09;;;;;;;;;;;;;;;24.12;48.49;101131.78;4987993;28;5380;-59
2022/07/30 12:38:42;;;;;;;;;;;;;;;24.11;47.99;101130.31;4996937;28;4157;-59
2022/07/30 12:41:08;;;;;;;;;;;;;;;24.13;47.67;101132.53;4991182;28;4195;-60
2022/07/30 12:43:45;;;;;;;;;;;;;;;24.15;47.30;101129.72;4991307;28;4247;-59
2022/07/30 12:46:12;;;;;;;;;;;;;;;24.18;47.27;101114.63;4992656;28;4667;-67
2022/07/30 12:48:56;;;;;;;;;;;;;;;24.21;47.24;101132.81;4991344;28;4071;-65
2022/07/30 12:51:24;;;;;;;;;;;;;;;24.22;47.20;101123.47;4995084;28;4855;-64
2022/07/30 12:53:51;;;;;;;;;;;;;;;24.18;47.16;101117.53;4998356;28;6280;-65
2022/07/30 12:56:24;;;;;;;;;;;;;;;24.19;47.47;101119.03;4996164;28;4537;-60
2022/07/30 12:58:51;;;;;;;;;;;;;;;24.23;47.01;101116.28;4990645;28;4160;-60
2022/07/30 13:01:17;;;;;;;;;;;;;;;24.22;47.40;101111.88;4989964;28;4652;-63
2022/07/30 13:03:44;;;;;;;;;;;;;;;24.20;47.31;101125.53;4986064;28;6148;-62
2022/07/30 13:06:10;;;;;;;;;;;;;;;24.19;47.47;101121.91;4987305;28;5745;-62
2022/07/30 13:08:43;;;;;;;;;;;;;;;24.22;47.00;101117.66;4996218;28;4092;-63
2022/07/30 13:11:09;;;;;;;;;;;;;;;24.22;47.15;101123.47;4986663;28;5152;-62